createdAt,value
2023-06-09T00:01:03.066Z,64.74
2023-06-09T00:03:34.972Z,63.94
2023-06-09T00:06:10.388Z,64.41
2023-06-09T00:08:42.220Z,63.92
2023-06-09T00:11:14.107Z,64.49
2023-06-09T00:13:46.669Z,64.46
2023-06-09T00:16:18.478Z,64.80
2023-06-09T00:18:50.278Z,64.84
2023-06-09T00:21:22.758Z,65.16
2023-06-09T00:23:57.252Z,65.18
2023-06-09T00:26:29.173Z,65.21
2023-06-09T00:29:01.355Z,65.00
2023-06-09T00:31:33.179Z,65.69
2023-06-09T00:34:04.974Z,66.14
2023-06-09T00:36:37.470Z,65.53
2023-06-09T00:39:10.468Z,66.23
2023-06-09T00:41:43.235Z,66.28
2023-06-09T00:44:16.099Z,66.44
2023-06-09T00:46:48.007Z,66.19
2023-06-09T00:49:19.898Z,66.70
2023-06-09T00:51:52.540Z,66.51
2023-06-09T00:54:24.431Z,67.22
2023-06-09T00:56:57.672Z,66.88
2023-06-09T00:59:29.781Z,67.15
2023-06-09T01:02:02.009Z,66.94
2023-06-09T01:04:36.214Z,67.06
2023-06-09T01:07:12.625Z,66.48
2023-06-09T01:09:50.851Z,67.68
2023-06-09T01:12:51.937Z,67.54
2023-06-09T01:15:30.885Z,67.99
2023-06-09T01:18:05.206Z,68.17
2023-06-09T01:20:47.173Z,68.12
2023-06-09T01:23:33.433Z,68.01
2023-06-09T01:26:06.827Z,67.98
2023-06-09T01:28:39.794Z,68.55
2023-06-09T01:31:16.419Z,68.83
2023-06-09T01:33:48.574Z,68.88
2023-06-09T01:36:21.162Z,69.00
2023-06-09T01:38:53.092Z,68.98
2023-06-09T01:41:26.744Z,68.83
2023-06-09T01:43:59.175Z,68.91
2023-06-09T01:46:31.212Z,69.19
2023-06-09T01:49:28.477Z,69.01
2023-06-09T01:52:22.129Z,69.40
2023-06-09T01:54:58.591Z,70.99
2023-06-09T01:57:59.602Z,70.79
2023-06-09T02:00:31.609Z,70.45
2023-06-09T02:03:06.953Z,70.07
2023-06-09T02:05:40.223Z,70.14
2023-06-09T02:08:12.601Z,70.42
2023-06-09T02:10:44.494Z,70.61
2023-06-09T02:13:18.224Z,69.96
2023-06-09T02:15:50.300Z,70.46
2023-06-09T02:18:22.892Z,70.51
2023-06-09T02:20:54.869Z,70.31
2023-06-09T02:23:26.882Z,70.66
2023-06-09T02:25:58.652Z,70.61
2023-06-09T02:28:30.442Z,70.15
2023-06-09T02:31:02.721Z,69.89
2023-06-09T02:33:34.861Z,69.53
2023-06-09T02:36:06.654Z,69.88
2023-06-09T02:38:38.696Z,70.23
2023-06-09T02:41:10.600Z,70.41
2023-06-09T02:43:42.493Z,70.47
2023-06-09T02:46:15.198Z,70.04
2023-06-09T02:48:48.938Z,69.43
2023-06-09T02:51:21.049Z,69.60
2023-06-09T02:53:52.838Z,69.37
2023-06-09T02:56:24.864Z,69.90
2023-06-09T02:58:56.632Z,68.79
2023-06-09T03:01:29.363Z,69.05
2023-06-09T03:04:01.395Z,68.73
2023-06-09T03:06:37.874Z,68.16
2023-06-09T03:09:12.215Z,69.16
2023-06-09T03:11:44.211Z,68.58
2023-06-09T03:14:16.197Z,68.18
2023-06-09T03:16:48.214Z,67.77
2023-06-09T03:19:20.102Z,67.25
2023-06-09T03:21:53.845Z,67.19
2023-06-09T03:24:26.496Z,66.85
2023-06-09T03:26:58.305Z,66.05
2023-06-09T03:29:30.317Z,65.89
2023-06-09T03:32:02.202Z,63.90
2023-06-09T03:34:33.987Z,63.30
2023-06-09T03:37:05.979Z,62.78
2023-06-09T03:39:37.908Z,61.85
2023-06-09T03:42:09.798Z,60.61
2023-06-09T03:44:41.664Z,60.75
2023-06-09T03:47:13.474Z,61.92
2023-06-09T03:49:45.262Z,62.25
2023-06-09T03:52:17.224Z,63.42
2023-06-09T03:54:49.795Z,63.94
2023-06-09T03:57:21.909Z,64.41
2023-06-09T03:59:53.733Z,64.48
2023-06-09T04:02:25.657Z,64.69
2023-06-09T04:04:57.553Z,65.14
2023-06-09T04:07:31.476Z,65.14
2023-06-09T04:10:04.326Z,64.92
2023-06-09T04:12:36.544Z,65.47
2023-06-09T04:15:09.466Z,64.58
2023-06-09T04:17:41.644Z,64.40
2023-06-09T04:20:13.793Z,64.93
2023-06-09T04:22:49.643Z,64.79
2023-06-09T04:25:27.486Z,64.66
2023-06-09T04:28:01.806Z,64.57
2023-06-09T04:30:35.829Z,65.13
2023-06-09T04:33:09.214Z,64.62
2023-06-09T04:35:42.489Z,64.75
2023-06-09T04:38:14.270Z,64.48
2023-06-09T04:40:46.978Z,64.13
2023-06-09T04:43:19.537Z,62.47
2023-06-09T04:45:56.657Z,61.24
2023-06-09T04:48:30.675Z,59.82
2023-06-09T04:51:02.862Z,59.53
2023-06-09T04:53:35.966Z,57.93
2023-06-09T04:56:09.857Z,57.76
2023-06-09T04:58:42.321Z,57.06
2023-06-09T05:01:14.669Z,57.14
2023-06-09T05:03:46.883Z,56.72
2023-06-09T05:06:18.668Z,55.94
2023-06-09T05:08:52.048Z,56.07
2023-06-09T05:11:24.254Z,54.59
2023-06-09T05:13:56.170Z,54.64
2023-06-09T05:16:28.694Z,54.00
2023-06-09T05:19:00.596Z,53.91
2023-06-09T05:21:32.386Z,53.94
2023-06-09T05:24:04.891Z,53.54
2023-06-09T05:26:37.052Z,54.24
2023-06-09T05:29:08.992Z,53.18
2023-06-09T05:31:40.944Z,53.76
2023-06-09T05:34:13.519Z,53.04
2023-06-09T05:36:45.570Z,52.44
2023-06-09T05:39:17.405Z,53.49
2023-06-09T05:41:49.178Z,53.55
2023-06-09T05:44:21.035Z,52.54
2023-06-09T05:47:02.440Z,51.95
2023-06-09T05:49:35.739Z,52.54
2023-06-09T05:52:07.744Z,51.70
2023-06-09T05:54:39.549Z,51.93
2023-06-09T05:57:11.939Z,51.75
2023-06-09T05:59:44.162Z,50.95
2023-06-09T06:02:17.207Z,51.87
2023-06-09T06:04:50.715Z,50.56
2023-06-09T06:07:27.173Z,50.10
2023-06-09T06:09:58.947Z,50.00
2023-06-09T06:12:31.724Z,49.98
2023-06-09T06:15:03.719Z,49.70
2023-06-09T06:17:35.547Z,49.08
2023-06-09T06:20:07.945Z,48.85
2023-06-09T06:22:40.912Z,48.51
2023-06-09T06:25:14.716Z,47.74
2023-06-09T06:27:48.636Z,47.33
2023-06-09T06:30:20.722Z,46.87
2023-06-09T06:32:54.397Z,47.56
2023-06-09T06:35:28.154Z,47.79
2023-06-09T06:38:00.399Z,47.49
2023-06-09T06:40:32.187Z,46.77
2023-06-09T06:43:03.981Z,47.62
2023-06-09T06:45:35.801Z,48.06
2023-06-09T06:48:07.591Z,48.10
2023-06-09T06:50:41.626Z,47.44
2023-06-09T06:53:13.651Z,47.88
2023-06-09T06:55:46.779Z,46.57
2023-06-09T06:58:18.700Z,45.92
2023-06-09T07:00:50.522Z,45.96
2023-06-09T07:03:26.259Z,46.38
2023-06-09T07:05:58.060Z,47.02
2023-06-09T07:08:29.894Z,46.91
2023-06-09T07:11:01.713Z,46.56
2023-06-09T07:13:33.506Z,46.35
2023-06-09T07:16:05.590Z,45.39
2023-06-09T07:18:37.911Z,44.69
2023-06-09T07:21:10.098Z,45.20
2023-06-09T07:23:41.905Z,44.85
2023-06-09T07:26:13.839Z,44.59
2023-06-09T07:28:45.697Z,44.25
2023-06-09T07:31:17.767Z,44.27
2023-06-09T07:33:49.667Z,44.16
2023-06-09T07:36:21.447Z,42.13
2023-06-09T07:38:53.357Z,42.37
2023-06-09T07:41:25.201Z,41.70
2023-06-09T07:43:58.162Z,41.81
2023-06-09T07:46:31.918Z,41.98
2023-06-09T07:49:04.174Z,42.62
2023-06-09T07:51:39.250Z,41.72
2023-06-09T07:54:11.203Z,41.25
2023-06-09T07:56:44.186Z,41.54
2023-06-09T07:59:17.062Z,41.72
2023-06-09T08:01:49.039Z,42.05
2023-06-09T08:04:20.951Z,41.17
2023-06-09T08:06:53.214Z,40.67
2023-06-09T08:09:26.219Z,41.80
2023-06-09T08:11:58.035Z,42.20
2023-06-09T08:14:29.884Z,41.94
2023-06-09T08:17:01.746Z,41.48
2023-06-09T08:19:33.505Z,41.26
2023-06-09T08:22:05.504Z,42.63
2023-06-09T08:24:37.945Z,40.89
2023-06-09T08:27:09.762Z,41.04
2023-06-09T08:29:41.568Z,41.61
2023-06-09T08:32:13.360Z,41.54
2023-06-09T08:34:45.164Z,41.26
2023-06-09T08:37:16.921Z,41.74
2023-06-09T08:39:49.092Z,40.43
2023-06-09T08:42:27.127Z,40.67
2023-06-09T08:45:08.653Z,41.10
2023-06-09T08:47:45.934Z,40.16
2023-06-09T08:50:26.044Z,40.30
2023-06-09T08:52:58.142Z,40.29
2023-06-09T08:55:30.464Z,40.33
2023-06-09T08:58:02.568Z,40.78
2023-06-09T09:00:34.406Z,41.49
2023-06-09T09:03:07.476Z,39.48
2023-06-09T09:05:39.644Z,39.33
2023-06-09T09:08:12.675Z,38.79
2023-06-09T09:10:46.994Z,37.43
2023-06-09T09:13:19.586Z,37.56
2023-06-09T09:15:52.704Z,37.90
2023-06-09T09:18:24.606Z,37.51
2023-06-09T09:20:56.635Z,37.60
2023-06-09T09:23:34.851Z,37.83
2023-06-09T09:26:06.799Z,37.55
2023-06-09T09:28:40.845Z,36.87
2023-06-09T09:31:12.799Z,37.68
2023-06-09T09:33:51.175Z,37.08
2023-06-09T09:36:23.000Z,38.07
2023-06-09T09:39:02.389Z,37.68
2023-06-09T09:41:34.197Z,37.90
2023-06-09T09:44:07.442Z,37.63
2023-06-09T09:46:40.929Z,37.73
2023-06-09T09:49:23.149Z,38.42
2023-06-09T09:51:58.365Z,38.64
2023-06-09T09:54:30.896Z,37.93
2023-06-09T09:57:04.028Z,36.47
2023-06-09T09:59:36.022Z,36.87
2023-06-09T10:02:17.951Z,37.52
2023-06-09T10:04:51.051Z,35.60
2023-06-09T10:07:23.223Z,36.03
2023-06-09T10:09:55.772Z,36.09
2023-06-09T10:12:28.316Z,35.62
2023-06-09T10:15:00.215Z,36.12
2023-06-09T10:17:33.388Z,37.39
2023-06-09T10:20:06.928Z,35.09
2023-06-09T10:22:39.289Z,36.46
2023-06-09T10:25:13.552Z,37.02
2023-06-09T10:27:46.706Z,35.75
2023-06-09T10:30:22.191Z,35.62
2023-06-09T10:33:12.128Z,34.36
2023-06-09T10:35:47.776Z,36.12
2023-06-09T10:38:29.813Z,35.65
2023-06-09T10:41:40.733Z,36.26
2023-06-09T10:44:42.498Z,35.87
2023-06-09T10:47:44.386Z,37.09
2023-06-09T10:50:26.377Z,37.76
2023-06-09T10:53:00.154Z,38.32
2023-06-09T10:55:36.272Z,37.73
2023-06-09T10:58:36.579Z,38.09
2023-06-09T11:01:08.940Z,36.71
2023-06-09T11:03:40.982Z,35.91
2023-06-09T11:06:12.804Z,36.93
2023-06-09T11:09:10.342Z,36.20
2023-06-09T11:11:50.618Z,37.07
2023-06-09T11:14:52.610Z,37.31
2023-06-09T11:17:35.563Z,38.44
2023-06-09T11:20:07.777Z,40.20
2023-06-09T11:22:42.910Z,40.87
2023-06-09T11:25:20.955Z,41.26
2023-06-09T11:27:58.682Z,43.58
2023-06-09T11:30:32.003Z,43.62
2023-06-09T11:33:05.912Z,44.88
2023-06-09T11:35:42.039Z,46.51
2023-06-09T11:38:21.122Z,47.02
2023-06-09T11:40:53.814Z,49.61
2023-06-09T11:43:27.048Z,48.64
2023-06-09T11:46:05.068Z,51.29
2023-06-09T11:48:36.922Z,55.53
2023-06-09T11:51:08.690Z,50.94
2023-06-09T11:53:48.758Z,51.97
2023-06-09T11:56:21.327Z,46.21
2023-06-09T11:58:56.704Z,46.05
2023-06-09T12:01:32.697Z,45.37
2023-06-09T12:04:05.931Z,47.89
2023-06-09T12:06:38.775Z,53.41
2023-06-09T12:09:21.479Z,52.86
2023-06-09T12:11:54.465Z,52.93
2023-06-09T12:14:26.761Z,57.72
2023-06-09T12:16:58.659Z,58.38
2023-06-09T12:19:31.167Z,59.01
2023-06-09T12:22:04.345Z,50.28
2023-06-09T12:24:36.311Z,49.60
2023-06-09T12:27:15.168Z,52.14
2023-06-09T12:29:47.274Z,53.76
2023-06-09T12:32:24.957Z,51.59
2023-06-09T12:35:01.900Z,49.84
2023-06-09T12:37:39.644Z,51.36
2023-06-09T12:40:13.086Z,50.36
2023-06-09T12:42:49.197Z,50.48
2023-06-09T12:45:22.454Z,46.62
2023-06-09T12:47:54.392Z,48.40
2023-06-09T12:50:26.242Z,47.64
2023-06-09T12:52:57.996Z,47.25
2023-06-09T12:55:29.769Z,46.72
2023-06-09T12:58:01.740Z,50.56
2023-06-09T13:00:34.082Z,48.57
2023-06-09T13:03:09.829Z,49.78
2023-06-09T13:05:41.931Z,51.60
2023-06-09T13:08:13.753Z,52.98
2023-06-09T13:10:45.675Z,52.65
2023-06-09T13:13:17.450Z,52.83
2023-06-09T13:15:49.323Z,53.60
2023-06-09T13:18:21.090Z,55.23
2023-06-09T13:20:53.370Z,56.00
2023-06-09T13:23:25.169Z,54.94
2023-06-09T13:25:56.952Z,55.90
2023-06-09T13:28:28.824Z,54.98
2023-06-09T13:31:01.451Z,55.59
2023-06-09T13:33:33.309Z,54.92
2023-06-09T13:36:05.253Z,53.95
2023-06-09T13:38:39.055Z,53.43
2023-06-09T13:41:14.794Z,52.82
2023-06-09T13:43:47.654Z,47.32
2023-06-09T13:46:19.789Z,47.09
2023-06-09T13:48:51.848Z,44.13
2023-06-09T13:51:23.724Z,44.71
2023-06-09T13:53:55.496Z,45.95
2023-06-09T13:56:27.486Z,47.64
2023-06-09T13:58:59.390Z,46.62
2023-06-09T14:01:34.001Z,46.71
2023-06-09T14:04:06.155Z,46.18
2023-06-09T14:06:39.421Z,48.13
2023-06-09T14:09:13.466Z,48.30
2023-06-09T14:11:45.254Z,48.94
2023-06-09T14:14:18.072Z,49.59
2023-06-09T14:16:50.042Z,49.10
2023-06-09T14:19:22.709Z,49.30
2023-06-09T14:21:54.620Z,47.94
2023-06-09T14:24:26.698Z,50.27
2023-06-09T14:26:59.621Z,48.82
2023-06-09T14:29:33.502Z,48.80
2023-06-09T14:32:06.171Z,48.02
2023-06-09T14:34:38.075Z,47.61
2023-06-09T14:37:09.880Z,48.19
2023-06-09T14:39:41.655Z,46.38
2023-06-09T14:42:13.494Z,48.25
2023-06-09T14:44:45.314Z,47.41
2023-06-09T14:47:17.131Z,46.41
2023-06-09T14:49:48.999Z,44.47
2023-06-09T14:52:20.964Z,43.97
2023-06-09T14:54:55.051Z,43.43
2023-06-09T14:57:26.893Z,43.84
2023-06-09T14:59:58.718Z,42.39
2023-06-09T15:02:30.612Z,43.39
2023-06-09T15:05:04.712Z,43.81
2023-06-09T15:07:36.701Z,43.89
2023-06-09T15:10:08.787Z,44.24
2023-06-09T15:12:40.588Z,45.01
2023-06-09T15:15:13.478Z,44.82
2023-06-09T15:17:45.569Z,45.26
2023-06-09T15:20:18.180Z,46.78
2023-06-09T15:22:50.032Z,47.65
2023-06-09T15:25:28.643Z,48.24
2023-06-09T15:28:02.368Z,48.72
2023-06-09T15:30:35.781Z,47.49
2023-06-09T15:33:09.987Z,47.54
2023-06-09T15:35:53.317Z,47.47
2023-06-09T15:38:26.488Z,47.69
2023-06-09T15:40:59.198Z,47.30
2023-06-09T15:43:38.303Z,47.68
2023-06-09T15:46:10.157Z,48.26
2023-06-09T15:48:42.021Z,48.42
2023-06-09T15:51:13.893Z,48.46
2023-06-09T15:53:45.761Z,48.86
2023-06-09T15:56:17.580Z,48.82
2023-06-09T15:58:49.439Z,48.49
2023-06-09T16:01:21.507Z,49.44
2023-06-09T16:03:53.638Z,48.62
2023-06-09T16:06:25.698Z,48.61
2023-06-09T16:09:04.345Z,48.65
2023-06-09T16:11:39.161Z,48.38
2023-06-09T16:14:13.434Z,48.03
2023-06-09T16:16:46.650Z,47.22
2023-06-09T16:22:04.338Z,44.45
2023-06-09T16:24:36.560Z,43.89
2023-06-09T16:27:09.593Z,43.86
2023-06-09T16:29:43.873Z,43.13
2023-06-09T16:32:15.694Z,42.79
2023-06-09T16:34:49.975Z,43.37
2023-06-09T16:37:22.188Z,42.79
2023-06-09T16:39:54.605Z,43.65
2023-06-09T16:42:26.402Z,43.67
2023-06-09T16:45:03.061Z,43.57
2023-06-09T16:47:39.142Z,44.68
2023-06-09T16:50:11.964Z,45.44
2023-06-09T16:52:43.884Z,44.83
2023-06-09T16:55:16.905Z,45.13
2023-06-09T16:57:49.032Z,45.08
2023-06-09T17:00:23.560Z,44.98
2023-06-09T17:02:56.731Z,45.58
2023-06-09T17:05:30.845Z,46.00
2023-06-09T17:08:05.299Z,46.42
2023-06-09T17:10:37.602Z,47.00
2023-06-09T17:13:10.163Z,46.72
2023-06-09T17:15:41.981Z,46.57
2023-06-09T17:18:14.399Z,47.39
2023-06-09T17:20:47.588Z,47.81
2023-06-09T17:23:21.643Z,47.96
2023-06-09T17:25:53.435Z,48.93
2023-06-09T17:28:25.283Z,48.58
2023-06-09T17:30:57.594Z,49.90
2023-06-09T17:33:34.341Z,49.73
2023-06-09T17:36:06.510Z,50.61
2023-06-09T17:38:38.729Z,50.76
2023-06-09T17:41:10.777Z,51.58
2023-06-09T17:43:42.909Z,52.20
2023-06-09T17:46:15.041Z,52.12
2023-06-09T17:48:46.892Z,52.48
2023-06-09T17:51:20.557Z,52.06
2023-06-09T17:53:54.602Z,52.95
2023-06-09T17:56:28.058Z,53.53
2023-06-09T17:59:04.749Z,52.96
2023-06-09T18:01:37.406Z,53.68
2023-06-09T18:04:10.076Z,52.91
2023-06-09T18:06:46.952Z,53.83
2023-06-09T18:09:19.126Z,54.68
2023-06-09T18:11:51.816Z,54.35
2023-06-09T18:14:23.692Z,55.45
2023-06-09T18:16:55.511Z,54.60
2023-06-09T18:19:27.568Z,54.53
2023-06-09T18:21:59.391Z,54.89
2023-06-09T18:24:33.053Z,55.14
2023-06-09T18:27:05.134Z,54.41
2023-06-09T18:29:37.006Z,54.39
2023-06-09T18:32:10.376Z,54.81
2023-06-09T18:34:42.427Z,54.84
2023-06-09T18:37:14.251Z,55.17
2023-06-09T18:39:46.403Z,55.34
2023-06-09T18:42:18.823Z,55.71
2023-06-09T18:44:50.705Z,55.51
2023-06-09T18:47:23.967Z,55.51
2023-06-09T18:49:55.966Z,55.51
2023-06-09T18:52:32.067Z,55.42
2023-06-09T18:55:04.183Z,56.14
2023-06-09T18:57:38.485Z,56.01
2023-06-09T19:00:12.482Z,56.35
2023-06-09T19:02:45.814Z,56.24
2023-06-09T19:05:19.505Z,56.81
2023-06-09T19:07:51.363Z,56.98
2023-06-09T19:10:25.741Z,57.58
2023-06-09T19:12:57.544Z,56.91
2023-06-09T19:15:29.403Z,58.04
2023-06-09T19:18:01.989Z,57.52
2023-06-09T19:20:37.124Z,58.20
2023-06-09T19:23:09.244Z,58.35
2023-06-09T19:25:41.232Z,59.00
2023-06-09T19:28:13.094Z,57.70
2023-06-09T19:30:45.074Z,58.81
2023-06-09T19:33:17.469Z,59.71
2023-06-09T19:35:49.267Z,58.73
2023-06-09T19:38:21.336Z,59.92
2023-06-09T19:40:55.431Z,61.09
2023-06-09T19:43:28.818Z,59.90
2023-06-09T19:46:01.642Z,61.40
2023-06-09T19:48:34.351Z,61.16
2023-06-09T19:51:06.266Z,61.52
2023-06-09T19:53:38.083Z,63.12
2023-06-09T19:56:12.814Z,62.17
2023-06-09T19:58:44.629Z,62.11
2023-06-09T20:01:16.495Z,59.48
2023-06-09T20:03:48.301Z,59.33
2023-06-09T20:06:20.659Z,58.84
2023-06-09T20:08:52.457Z,59.23
2023-06-09T20:11:25.235Z,59.01
2023-06-09T20:13:57.165Z,57.73
2023-06-09T20:16:34.503Z,58.45
2023-06-09T20:19:08.019Z,58.44
2023-06-09T20:21:39.866Z,58.54
2023-06-09T20:24:12.026Z,59.24
2023-06-09T20:26:45.295Z,59.37
2023-06-09T20:29:18.602Z,59.29
2023-06-09T20:31:50.547Z,60.14
2023-06-09T20:34:22.622Z,59.79
2023-06-09T20:36:54.823Z,59.57
2023-06-09T20:39:26.719Z,59.67
2023-06-09T20:41:58.490Z,59.62
2023-06-09T20:44:30.426Z,60.28
2023-06-09T20:47:03.882Z,60.90
2023-06-09T20:49:39.836Z,60.59
2023-06-09T20:52:12.550Z,61.07
2023-06-09T20:54:44.668Z,60.79
2023-06-09T20:57:16.761Z,61.01
2023-06-09T20:59:48.568Z,61.88
2023-06-09T21:02:21.395Z,62.42
2023-06-09T21:04:53.267Z,62.48
2023-06-09T21:07:25.066Z,62.87
2023-06-09T21:09:56.850Z,62.75
2023-06-09T21:12:28.651Z,63.06
2023-06-09T21:15:00.478Z,63.18
2023-06-09T21:17:32.721Z,63.10
2023-06-09T21:20:13.401Z,63.59
2023-06-09T21:22:45.452Z,64.32
2023-06-09T21:25:17.648Z,64.34
2023-06-09T21:27:49.462Z,63.67
2023-06-09T21:30:22.092Z,63.63
2023-06-09T21:32:54.390Z,63.31
2023-06-09T21:35:26.647Z,63.69
2023-06-09T21:37:58.598Z,63.45
2023-06-09T21:40:30.701Z,64.02
2023-06-09T21:43:02.906Z,64.41
2023-06-09T21:45:35.233Z,64.03
2023-06-09T21:48:07.179Z,63.75
2023-06-09T21:50:38.994Z,63.91
2023-06-09T21:53:11.744Z,64.25
2023-06-09T21:55:45.620Z,63.80
2023-06-09T21:58:17.537Z,63.28
2023-06-09T22:00:49.485Z,63.36
2023-06-09T22:03:21.378Z,63.37
2023-06-09T22:05:53.175Z,64.38
2023-06-09T22:08:25.247Z,64.08
2023-06-09T22:10:58.589Z,63.85
2023-06-09T22:13:31.636Z,64.24
2023-06-09T22:16:03.874Z,64.42
2023-06-09T22:18:35.871Z,65.04
2023-06-09T22:21:08.148Z,64.54
2023-06-09T22:23:40.382Z,64.49
2023-06-09T22:26:12.532Z,64.27
2023-06-09T22:28:44.612Z,64.03
2023-06-09T22:31:16.877Z,64.71
2023-06-09T22:33:48.708Z,64.56
2023-06-09T22:36:24.377Z,64.21
2023-06-09T22:38:56.837Z,64.47
2023-06-09T22:41:28.648Z,64.58
2023-06-09T22:44:02.409Z,64.14
2023-06-09T22:46:35.146Z,63.34
2023-06-09T22:49:07.652Z,63.08
2023-06-09T22:51:39.421Z,62.46
2023-06-09T22:54:11.369Z,62.17
2023-06-09T22:56:44.795Z,61.71
2023-06-09T22:59:16.971Z,61.13
2023-06-09T23:01:48.791Z,60.44
2023-06-09T23:04:20.813Z,60.47
2023-06-09T23:06:53.054Z,59.25
2023-06-09T23:09:24.922Z,58.89
2023-06-09T23:11:59.187Z,58.39
2023-06-09T23:14:31.211Z,58.49
2023-06-09T23:17:03.432Z,57.83
2023-06-09T23:19:35.865Z,57.36
2023-06-09T23:22:14.499Z,56.73
2023-06-09T23:24:46.503Z,56.29
2023-06-09T23:27:18.294Z,56.52
2023-06-09T23:29:51.153Z,56.26
2023-06-09T23:32:23.131Z,56.56
2023-06-09T23:34:55.161Z,56.52
2023-06-09T23:37:29.425Z,56.22
2023-06-09T23:40:01.313Z,56.34
2023-06-09T23:42:33.132Z,56.60
2023-06-09T23:45:05.407Z,56.71
2023-06-09T23:47:37.672Z,56.74
2023-06-09T23:50:11.258Z,56.61
2023-06-09T23:52:43.193Z,56.90
2023-06-09T23:55:15.057Z,56.88
2023-06-09T23:57:46.871Z,57.33
